sensor_id;sensor_type;location;lat;lon;timestamp;pressure;altitude;pressure_sealevel;temperature;humidity
16094;BME280;8151;47.824;12.092;2023-03-14T00:02:15;94896.47;;;11.38;61.95
16094;BME280;8151;47.824;12.092;2023-03-14T00:04:43;94900.34;;;11.35;62.32
16094;BME280;8151;47.824;12.092;2023-03-14T00:07:13;94910.78;;;11.30;62.86
16094;BME280;8151;47.824;12.092;2023-03-14T00:09:41;94906.88;;;11.26;62.52
16094;BME280;8151;47.824;12.092;2023-03-14T00:12:10;94885.34;;;11.22;62.88
16094;BME280;8151;47.824;12.092;2023-03-14T00:14:38;94864.78;;;11.18;62.70
16094;BME280;8151;47.824;12.092;2023-03-14T00:17:09;94866.22;;;11.14;63.46
16094;BME280;8151;47.824;12.092;2023-03-14T00:19:38;94860.31;;;11.12;63.03
16094;BME280;8151;47.824;12.092;2023-03-14T00:22:06;94849.94;;;11.10;63.51
16094;BME280;8151;47.824;12.092;2023-03-14T00:24:36;94838.53;;;11.10;63.43
16094;BME280;8151;47.824;12.092;2023-03-14T00:27:05;94829.34;;;11.12;63.07
16094;BME280;8151;47.824;12.092;2023-03-14T00:29:33;94801.28;;;11.11;63.50
16094;BME280;8151;47.824;12.092;2023-03-14T00:32:01;94791.69;;;11.10;63.15
16094;BME280;8151;47.824;12.092;2023-03-14T00:34:30;94792.16;;;11.07;63.44
16094;BME280;8151;47.824;12.092;2023-03-14T00:36:59;94795.78;;;11.06;63.44
16094;BME280;8151;47.824;12.092;2023-03-14T00:39:27;94772.63;;;11.01;63.72
16094;BME280;8151;47.824;12.092;2023-03-14T00:41:57;94787.91;;;10.99;64.00
16094;BME280;8151;47.824;12.092;2023-03-14T00:44:25;94791.56;;;10.98;63.48
16094;BME280;8151;47.824;12.092;2023-03-14T00:46:54;94788.91;;;10.98;63.79
16094;BME280;8151;47.824;12.092;2023-03-14T00:49:24;94794.41;;;10.97;63.91
16094;BME280;8151;47.824;12.092;2023-03-14T00:51:52;94816.59;;;10.96;64.35
16094;BME280;8151;47.824;12.092;2023-03-14T00:54:21;94825.56;;;10.95;64.29
16094;BME280;8151;47.824;12.092;2023-03-14T00:56:49;94832.09;;;10.92;64.41
16094;BME280;8151;47.824;12.092;2023-03-14T00:59:19;94827.00;;;10.91;64.22
16094;BME280;8151;47.824;12.092;2023-03-14T01:01:47;94821.50;;;10.92;64.08
16094;BME280;8151;47.824;12.092;2023-03-14T01:04:16;94836.56;;;10.85;64.75
16094;BME280;8151;47.824;12.092;2023-03-14T01:06:44;94831.91;;;10.80;65.10
16094;BME280;8151;47.824;12.092;2023-03-14T01:09:12;94823.97;;;10.80;64.66
16094;BME280;8151;47.824;12.092;2023-03-14T01:11:41;94810.75;;;10.80;65.02
16094;BME280;8151;47.824;12.092;2023-03-14T01:14:13;94803.00;;;10.79;65.18
16094;BME280;8151;47.824;12.092;2023-03-14T01:16:43;94802.41;;;10.77;64.90
16094;BME280;8151;47.824;12.092;2023-03-14T01:19:11;94788.56;;;10.75;65.00
16094;BME280;8151;47.824;12.092;2023-03-14T01:21:40;94794.88;;;10.74;64.99
16094;BME280;8151;47.824;12.092;2023-03-14T01:24:11;94795.09;;;10.72;65.20
16094;BME280;8151;47.824;12.092;2023-03-14T01:26:39;94806.09;;;10.69;65.13
16094;BME280;8151;47.824;12.092;2023-03-14T01:29:07;94821.97;;;10.69;64.85
16094;BME280;8151;47.824;12.092;2023-03-14T01:31:36;94827.25;;;10.69;65.51
16094;BME280;8151;47.824;12.092;2023-03-14T01:34:05;94849.22;;;10.70;65.17
16094;BME280;8151;47.824;12.092;2023-03-14T01:36:34;94842.72;;;10.66;65.81
16094;BME280;8151;47.824;12.092;2023-03-14T01:39:02;94804.88;;;10.58;65.90
16094;BME280;8151;47.824;12.092;2023-03-14T01:41:33;94837.25;;;10.54;66.04
16094;BME280;8151;47.824;12.092;2023-03-14T01:44:01;94837.03;;;10.49;66.19
16094;BME280;8151;47.824;12.092;2023-03-14T01:46:38;94804.50;;;10.48;66.86
16094;BME280;8151;47.824;12.092;2023-03-14T01:49:24;94813.88;;;10.51;66.67
16094;BME280;8151;47.824;12.092;2023-03-14T01:51:56;94819.75;;;10.53;66.49
16094;BME280;8151;47.824;12.092;2023-03-14T01:54:29;94818.94;;;10.52;66.45
16094;BME280;8151;47.824;12.092;2023-03-14T01:57:03;94812.84;;;10.52;66.59
16094;BME280;8151;47.824;12.092;2023-03-14T01:59:34;94816.09;;;10.54;66.18
16094;BME280;8151;47.824;12.092;2023-03-14T02:02:06;94805.72;;;10.52;66.28
16094;BME280;8151;47.824;12.092;2023-03-14T02:04:38;94789.44;;;10.49;66.85
16094;BME280;8151;47.824;12.092;2023-03-14T02:07:11;94802.47;;;10.50;67.08
16094;BME280;8151;47.824;12.092;2023-03-14T02:09:41;94798.00;;;10.51;66.77
16094;BME280;8151;47.824;12.092;2023-03-14T02:12:11;94807.56;;;10.45;66.89
16094;BME280;8151;47.824;12.092;2023-03-14T02:14:42;94806.13;;;10.42;67.40
16094;BME280;8151;47.824;12.092;2023-03-14T02:17:16;94806.13;;;10.42;67.75
16094;BME280;8151;47.824;12.092;2023-03-14T02:20:03;94806.53;;;10.46;67.72
16094;BME280;8151;47.824;12.092;2023-03-14T02:22:34;94815.28;;;10.47;67.27
16094;BME280;8151;47.824;12.092;2023-03-14T02:25:07;94826.06;;;10.45;68.00
16094;BME280;8151;47.824;12.092;2023-03-14T02:27:41;94831.75;;;10.42;68.01
16094;BME280;8151;47.824;12.092;2023-03-14T02:30:12;94843.56;;;10.39;68.81
16094;BME280;8151;47.824;12.092;2023-03-14T02:32:45;94852.50;;;10.38;69.54
16094;BME280;8151;47.824;12.092;2023-03-14T02:35:18;94849.25;;;10.36;69.96
16094;BME280;8151;47.824;12.092;2023-03-14T02:37:51;94848.84;;;10.33;70.40
16094;BME280;8151;47.824;12.092;2023-03-14T02:40:21;94844.59;;;10.32;70.42
16094;BME280;8151;47.824;12.092;2023-03-14T02:42:51;94853.53;;;10.31;70.65
16094;BME280;8151;47.824;12.092;2023-03-14T02:45:43;94873.22;;;10.28;71.80
16094;BME280;8151;47.824;12.092;2023-03-14T02:48:15;94866.72;;;10.24;72.17
16094;BME280;8151;47.824;12.092;2023-03-14T02:50:46;94864.28;;;10.22;72.35
16094;BME280;8151;47.824;12.092;2023-03-14T02:53:17;94865.06;;;10.23;72.68
16094;BME280;8151;47.824;12.092;2023-03-14T02:55:47;94869.97;;;10.26;72.75
16094;BME280;8151;47.824;12.092;2023-03-14T02:58:19;94859.19;;;10.28;73.50
16094;BME280;8151;47.824;12.092;2023-03-14T03:00:48;94858.97;;;10.29;73.71
16094;BME280;8151;47.824;12.092;2023-03-14T03:03:16;94851.69;;;10.31;73.73
16094;BME280;8151;47.824;12.092;2023-03-14T03:05:48;94846.59;;;10.30;73.45
16094;BME280;8151;47.824;12.092;2023-03-14T03:08:17;94852.66;;;10.23;73.97
16094;BME280;8151;47.824;12.092;2023-03-14T03:10:46;94849.84;;;10.18;74.61
16094;BME280;8151;47.824;12.092;2023-03-14T03:13:15;94848.81;;;10.13;74.73
16094;BME280;8151;47.824;12.092;2023-03-14T03:15:55;94861.22;;;10.12;75.25
16094;BME280;8151;47.824;12.092;2023-03-14T03:18:23;94852.88;;;10.15;75.57
16094;BME280;8151;47.824;12.092;2023-03-14T03:20:52;94852.69;;;10.17;74.90
16094;BME280;8151;47.824;12.092;2023-03-14T03:23:25;94849.44;;;10.15;75.37
16094;BME280;8151;47.824;12.092;2023-03-14T03:25:53;94859.78;;;10.10;76.11
16094;BME280;8151;47.824;12.092;2023-03-14T03:28:22;94859.59;;;10.04;76.33
16094;BME280;8151;47.824;12.092;2023-03-14T03:30:50;94861.22;;;9.99;76.18
16094;BME280;8151;47.824;12.092;2023-03-14T03:33:20;94862.03;;;9.93;76.57
16094;BME280;8151;47.824;12.092;2023-03-14T03:35:50;94856.31;;;9.89;76.83
16094;BME280;8151;47.824;12.092;2023-03-14T03:38:19;94859.53;;;9.84;77.47
16094;BME280;8151;47.824;12.092;2023-03-14T03:40:48;94864.44;;;9.81;77.14
16094;BME280;8151;47.824;12.092;2023-03-14T03:43:16;94860.53;;;9.77;77.45
16094;BME280;8151;47.824;12.092;2023-03-14T03:45:45;94842.06;;;9.77;77.39
16094;BME280;8151;47.824;12.092;2023-03-14T03:48:13;94842.88;;;9.77;77.66
16094;BME280;8151;47.824;12.092;2023-03-14T03:50:45;94821.16;;;9.75;77.73
16094;BME280;8151;47.824;12.092;2023-03-14T03:53:14;94818.09;;;9.72;77.87
16094;BME280;8151;47.824;12.092;2023-03-14T03:55:56;94801.63;;;9.70;77.48
16094;BME280;8151;47.824;12.092;2023-03-14T03:58:25;94791.06;;;9.70;77.24
16094;BME280;8151;47.824;12.092;2023-03-14T04:00:54;94784.56;;;9.72;77.13
16094;BME280;8151;47.824;12.092;2023-03-14T04:03:22;94789.66;;;9.74;77.43
16094;BME280;8151;47.824;12.092;2023-03-14T04:05:59;94800.22;;;9.74;77.06
16094;BME280;8151;47.824;12.092;2023-03-14T04:08:29;94790.47;;;9.74;77.11
16094;BME280;8151;47.824;12.092;2023-03-14T04:10:58;94794.94;;;9.74;76.98
16094;BME280;8151;47.824;12.092;2023-03-14T04:13:27;94803.06;;;9.72;76.64
16094;BME280;8151;47.824;12.092;2023-03-14T04:15:56;94805.88;;;9.71;76.99
16094;BME280;8151;47.824;12.092;2023-03-14T04:18:26;94797.34;;;9.69;77.27
16094;BME280;8151;47.824;12.092;2023-03-14T04:20:58;94810.56;;;9.69;77.06
16094;BME280;8151;47.824;12.092;2023-03-14T04:23:27;94807.31;;;9.66;77.08
16094;BME280;8151;47.824;12.092;2023-03-14T04:25:55;94797.56;;;9.67;76.43
16094;BME280;8151;47.824;12.092;2023-03-14T04:28:23;94801.03;;;9.68;76.45
16094;BME280;8151;47.824;12.092;2023-03-14T04:30:52;94796.94;;;9.65;76.40
16094;BME280;8151;47.824;12.092;2023-03-14T04:33:20;94799.38;;;9.66;76.67
16094;BME280;8151;47.824;12.092;2023-03-14T04:35:49;94801.84;;;9.68;76.81
16094;BME280;8151;47.824;12.092;2023-03-14T04:38:19;94795.31;;;9.71;76.14
16094;BME280;8151;47.824;12.092;2023-03-14T04:40:48;94782.13;;;9.71;76.78
16094;BME280;8151;47.824;12.092;2023-03-14T04:43:16;94780.09;;;9.73;76.46
16094;BME280;8151;47.824;12.092;2023-03-14T04:45:44;94780.94;;;9.73;76.71
16094;BME280;8151;47.824;12.092;2023-03-14T04:48:13;94787.00;;;9.74;76.70
16094;BME280;8151;47.824;12.092;2023-03-14T04:50:41;94783.56;;;9.73;76.68
16094;BME280;8151;47.824;12.092;2023-03-14T04:53:10;94789.03;;;9.72;77.20
16094;BME280;8151;47.824;12.092;2023-03-14T04:55:39;94780.72;;;9.68;77.35
16094;BME280;8151;47.824;12.092;2023-03-14T04:58:08;94795.31;;;9.64;77.57
16094;BME280;8151;47.824;12.092;2023-03-14T05:00:36;94784.16;;;9.62;77.47
16094;BME280;8151;47.824;12.092;2023-03-14T05:03:06;94777.22;;;9.61;77.44
16094;BME280;8151;47.824;12.092;2023-03-14T05:05:34;94767.47;;;9.61;77.76
16094;BME280;8151;47.824;12.092;2023-03-14T05:08:03;94757.94;;;9.60;77.92
16094;BME280;8151;47.824;12.092;2023-03-14T05:10:31;94751.03;;;9.59;77.90
16094;BME280;8151;47.824;12.092;2023-03-14T05:13:01;94741.06;;;9.61;78.28
16094;BME280;8151;47.824;12.092;2023-03-14T05:15:29;94741.31;;;9.60;77.81
16094;BME280;8151;47.824;12.092;2023-03-14T05:17:58;94725.88;;;9.63;77.73
16094;BME280;8151;47.824;12.092;2023-03-14T05:20:26;94703.72;;;9.64;78.39
16094;BME280;8151;47.824;12.092;2023-03-14T05:22:55;94715.91;;;9.65;77.77
16094;BME280;8151;47.824;12.092;2023-03-14T05:25:23;94703.53;;;9.66;77.71
16094;BME280;8151;47.824;12.092;2023-03-14T05:27:53;94700.69;;;9.68;77.83
16094;BME280;8151;47.824;12.092;2023-03-14T05:30:23;94692.75;;;9.68;77.71
16094;BME280;8151;47.824;12.092;2023-03-14T05:32:51;94703.31;;;9.68;77.57
16094;BME280;8151;47.824;12.092;2023-03-14T05:35:20;94698.84;;;9.61;77.98
16094;BME280;8151;47.824;12.092;2023-03-14T05:37:49;94689.09;;;9.55;78.27
16094;BME280;8151;47.824;12.092;2023-03-14T05:40:17;94687.69;;;9.53;78.42
16094;BME280;8151;47.824;12.092;2023-03-14T05:42:46;94690.72;;;9.50;78.25
16094;BME280;8151;47.824;12.092;2023-03-14T05:45:14;94676.91;;;9.48;78.06
16094;BME280;8151;47.824;12.092;2023-03-14T05:47:44;94668.78;;;9.42;78.34
16094;BME280;8151;47.824;12.092;2023-03-14T05:50:12;94663.91;;;9.39;79.00
16094;BME280;8151;47.824;12.092;2023-03-14T05:52:41;94658.81;;;9.38;78.29
16094;BME280;8151;47.824;12.092;2023-03-14T05:55:09;94655.56;;;9.36;78.55
16094;BME280;8151;47.824;12.092;2023-03-14T05:57:38;94654.56;;;9.37;78.63
16094;BME280;8151;47.824;12.092;2023-03-14T06:00:07;94664.31;;;9.36;78.62
16094;BME280;8151;47.824;12.092;2023-03-14T06:02:36;94661.06;;;9.34;78.72
16094;BME280;8151;47.824;12.092;2023-03-14T06:05:07;94657.41;;;9.35;78.48
16094;BME280;8151;47.824;12.092;2023-03-14T06:07:35;94663.50;;;9.36;78.38
16094;BME280;8151;47.824;12.092;2023-03-14T06:10:05;94662.88;;;9.34;78.24
16094;BME280;8151;47.824;12.092;2023-03-14T06:12:33;94663.91;;;9.33;78.38
16094;BME280;8151;47.824;12.092;2023-03-14T06:15:02;94655.41;;;9.31;78.38
16094;BME280;8151;47.824;12.092;2023-03-14T06:17:30;94627.38;;;9.30;78.33
16094;BME280;8151;47.824;12.092;2023-03-14T06:19:59;94619.03;;;9.26;78.26
16094;BME280;8151;47.824;12.092;2023-03-14T06:22:29;94615.59;;;9.25;78.49
16094;BME280;8151;47.824;12.092;2023-03-14T06:24:57;94616.00;;;9.22;78.47
16094;BME280;8151;47.824;12.092;2023-03-14T06:27:25;94619.66;;;9.21;78.72
16094;BME280;8151;47.824;12.092;2023-03-14T06:29:54;94617.22;;;9.20;78.63
16094;BME280;8151;47.824;12.092;2023-03-14T06:32:22;94615.56;;;9.19;78.77
16094;BME280;8151;47.824;12.092;2023-03-14T06:34:51;94610.31;;;9.19;78.88
16094;BME280;8151;47.824;12.092;2023-03-14T06:37:20;94599.97;;;9.17;78.86
16094;BME280;8151;47.824;12.092;2023-03-14T06:39:50;94599.97;;;9.17;78.98
16094;BME280;8151;47.824;12.092;2023-03-14T06:42:18;94598.13;;;9.18;78.74
16094;BME280;8151;47.824;12.092;2023-03-14T06:44:46;94601.78;;;9.17;78.77
16094;BME280;8151;47.824;12.092;2023-03-14T06:47:15;94613.34;;;9.16;78.81
16094;BME280;8151;47.824;12.092;2023-03-14T06:49:43;94619.63;;;9.15;78.55
16094;BME280;8151;47.824;12.092;2023-03-14T06:52:12;94620.47;;;9.15;78.73
16094;BME280;8151;47.824;12.092;2023-03-14T06:54:40;94635.28;;;9.16;79.02
16094;BME280;8151;47.824;12.092;2023-03-14T06:57:10;94641.34;;;9.17;78.85
16094;BME280;8151;47.824;12.092;2023-03-14T06:59:38;94648.06;;;9.19;79.15
16094;BME280;8151;47.824;12.092;2023-03-14T07:02:10;94641.16;;;9.18;79.03
16094;BME280;8151;47.824;12.092;2023-03-14T07:04:40;94645.44;;;9.19;79.41
16094;BME280;8151;47.824;12.092;2023-03-14T07:07:09;94638.72;;;9.23;78.64
16094;BME280;8151;47.824;12.092;2023-03-14T07:09:37;94640.75;;;9.28;79.36
16094;BME280;8151;47.824;12.092;2023-03-14T07:12:06;94644.59;;;9.32;78.97
16094;BME280;8151;47.824;12.092;2023-03-14T07:14:36;94625.75;;;9.35;78.50
16094;BME280;8151;47.824;12.092;2023-03-14T07:17:04;94630.81;;;9.37;78.62
16094;BME280;8151;47.824;12.092;2023-03-14T07:19:33;94631.03;;;9.35;79.10
16094;BME280;8151;47.824;12.092;2023-03-14T07:22:01;94624.50;;;9.38;79.37
16094;BME280;8151;47.824;12.092;2023-03-14T07:24:30;94629.78;;;9.38;78.65
16094;BME280;8151;47.824;12.092;2023-03-14T07:26:58;94638.75;;;9.37;78.89
16094;BME280;8151;47.824;12.092;2023-03-14T07:29:26;94637.91;;;9.36;78.76
16094;BME280;8151;47.824;12.092;2023-03-14T07:31:56;94645.03;;;9.36;79.27
16094;BME280;8151;47.824;12.092;2023-03-14T07:34:24;94645.44;;;9.33;79.15
16094;BME280;8151;47.824;12.092;2023-03-14T07:36:53;94658.63;;;9.33;79.18
16094;BME280;8151;47.824;12.092;2023-03-14T07:39:21;94661.66;;;9.30;79.08
16094;BME280;8151;47.824;12.092;2023-03-14T07:41:50;94658.03;;;9.31;79.17
16094;BME280;8151;47.824;12.092;2023-03-14T07:44:18;94662.69;;;9.29;79.68
16094;BME280;8151;47.824;12.092;2023-03-14T07:46:47;94661.88;;;9.28;79.12
16094;BME280;8151;47.824;12.092;2023-03-14T07:49:17;94658.63;;;9.26;79.66
16094;BME280;8151;47.824;12.092;2023-03-14T07:51:47;94660.44;;;9.25;79.71
16094;BME280;8151;47.824;12.092;2023-03-14T07:54:16;94664.69;;;9.26;79.33
16094;BME280;8151;47.824;12.092;2023-03-14T07:56:47;94665.72;;;9.25;79.67
16094;BME280;8151;47.824;12.092;2023-03-14T07:59:15;94664.09;;;9.24;79.91
16094;BME280;8151;47.824;12.092;2023-03-14T08:01:44;94663.09;;;9.25;80.18
16094;BME280;8151;47.824;12.092;2023-03-14T08:04:12;94662.47;;;9.23;79.45
16094;BME280;8151;47.824;12.092;2023-03-14T08:06:42;94660.84;;;9.22;80.15
16094;BME280;8151;47.824;12.092;2023-03-14T08:09:10;94662.47;;;9.17;79.94
16094;BME280;8151;47.824;12.092;2023-03-14T08:11:39;94659.44;;;9.13;79.77
16094;BME280;8151;47.824;12.092;2023-03-14T08:14:07;94665.91;;;9.11;80.18
16094;BME280;8151;47.824;12.092;2023-03-14T08:16:38;94668.75;;;9.09;80.45
16094;BME280;8151;47.824;12.092;2023-03-14T08:19:06;94666.09;;;9.09;80.03
16094;BME280;8151;47.824;12.092;2023-03-14T08:21:34;94663.47;;;9.09;80.13
16094;BME280;8151;47.824;12.092;2023-03-14T08:24:04;94662.84;;;9.07;80.22
16094;BME280;8151;47.824;12.092;2023-03-14T08:26:33;94663.28;;;9.04;80.39
16094;BME280;8151;47.824;12.092;2023-03-14T08:29:02;94646.84;;;9.02;80.46
16094;BME280;8151;47.824;12.092;2023-03-14T08:31:31;94651.28;;;9.01;80.46
16094;BME280;8151;47.824;12.092;2023-03-14T08:34:00;94653.72;;;9.03;80.82
16094;BME280;8151;47.824;12.092;2023-03-14T08:36:28;94643.38;;;9.01;80.72
16094;BME280;8151;47.824;12.092;2023-03-14T08:38:58;94642.56;;;9.01;80.60
16094;BME280;8151;47.824;12.092;2023-03-14T08:41:27;94648.03;;;8.99;80.44
16094;BME280;8151;47.824;12.092;2023-03-14T08:43:56;94656.16;;;8.98;81.16
16094;BME280;8151;47.824;12.092;2023-03-14T08:46:24;94659.59;;;8.98;80.80
16094;BME280;8151;47.824;12.092;2023-03-14T08:48:55;94669.34;;;8.98;81.25
16094;BME280;8151;47.824;12.092;2023-03-14T08:51:23;94667.53;;;8.98;80.77
16094;BME280;8151;47.824;12.092;2023-03-14T08:53:51;94665.88;;;8.97;81.25
16094;BME280;8151;47.824;12.092;2023-03-14T08:56:20;94672.00;;;8.98;81.13
16094;BME280;8151;47.824;12.092;2023-03-14T08:58:53;94678.88;;;8.99;81.10
16094;BME280;8151;47.824;12.092;2023-03-14T09:01:21;94678.50;;;9.02;80.79
16094;BME280;8151;47.824;12.092;2023-03-14T09:03:52;94688.63;;;9.05;80.58
16094;BME280;8151;47.824;12.092;2023-03-14T09:06:20;94688.22;;;9.08;80.59
16094;BME280;8151;47.824;12.092;2023-03-14T09:08:49;94676.66;;;9.09;80.42
16094;BME280;8151;47.824;12.092;2023-03-14T09:11:17;94678.91;;;9.12;80.67
16094;BME280;8151;47.824;12.092;2023-03-14T09:13:46;94682.97;;;9.15;80.64
16094;BME280;8151;47.824;12.092;2023-03-14T09:16:17;94691.72;;;9.15;80.41
16094;BME280;8151;47.824;12.092;2023-03-14T09:18:45;94683.38;;;9.18;80.39
16094;BME280;8151;47.824;12.092;2023-03-14T09:21:13;94694.53;;;9.20;80.72
16094;BME280;8151;47.824;12.092;2023-03-14T09:23:43;94691.91;;;9.20;80.31
16094;BME280;8151;47.824;12.092;2023-03-14T09:26:12;94702.88;;;9.24;80.29
16094;BME280;8151;47.824;12.092;2023-03-14T09:28:41;94707.75;;;9.27;80.31
16094;BME280;8151;47.824;12.092;2023-03-14T09:31:11;94715.69;;;9.27;80.28
16094;BME280;8151;47.824;12.092;2023-03-14T09:33:41;94718.50;;;9.25;79.62
16094;BME280;8151;47.824;12.092;2023-03-14T09:36:09;94710.78;;;9.24;80.24
16094;BME280;8151;47.824;12.092;2023-03-14T09:38:38;94721.94;;;9.26;79.77
16094;BME280;8151;47.824;12.092;2023-03-14T09:41:18;94725.00;;;9.23;79.47
16094;BME280;8151;47.824;12.092;2023-03-14T09:44:00;94731.28;;;9.15;79.57
16094;BME280;8151;47.824;12.092;2023-03-14T09:46:31;94746.47;;;9.06;79.78
16094;BME280;8151;47.824;12.092;2023-03-14T09:49:02;94738.75;;;9.05;79.53
16094;BME280;8151;47.824;12.092;2023-03-14T09:51:36;94750.31;;;9.04;79.65
16094;BME280;8151;47.824;12.092;2023-03-14T09:54:05;94736.94;;;9.05;79.77
16094;BME280;8151;47.824;12.092;2023-03-14T09:56:37;94749.72;;;9.09;79.77
16094;BME280;8151;47.824;12.092;2023-03-14T09:59:11;94744.25;;;9.10;79.91
16094;BME280;8151;47.824;12.092;2023-03-14T10:01:41;94751.56;;;9.15;79.93
16094;BME280;8151;47.824;12.092;2023-03-14T10:04:14;94749.94;;;9.20;79.86
16094;BME280;8151;47.824;12.092;2023-03-14T10:06:43;94749.16;;;9.26;79.73
16094;BME280;8151;47.824;12.092;2023-03-14T10:09:19;94748.56;;;9.31;79.50
16094;BME280;8151;47.824;12.092;2023-03-14T10:11:56;94750.78;;;9.34;79.42
16094;BME280;8151;47.824;12.092;2023-03-14T10:14:37;94738.19;;;9.36;79.77
16094;BME280;8151;47.824;12.092;2023-03-14T10:17:08;94724.00;;;9.37;79.25
16094;BME280;8151;47.824;12.092;2023-03-14T10:19:51;94721.78;;;9.41;79.48
16094;BME280;8151;47.824;12.092;2023-03-14T10:22:21;94702.69;;;9.45;80.02
16094;BME280;8151;47.824;12.092;2023-03-14T10:24:52;94687.25;;;9.49;79.89
16094;BME280;8151;47.824;12.092;2023-03-14T10:27:22;94686.66;;;9.54;79.89
16094;BME280;8151;47.824;12.092;2023-03-14T10:29:56;94680.78;;;9.58;80.25
16094;BME280;8151;47.824;12.092;2023-03-14T10:32:32;94661.25;;;9.59;80.31
16094;BME280;8151;47.824;12.092;2023-03-14T10:35:19;94648.28;;;9.58;80.04
16094;BME280;8151;47.824;12.092;2023-03-14T10:37:51;94662.69;;;9.55;79.97
16094;BME280;8151;47.824;12.092;2023-03-14T10:40:28;94677.31;;;9.51;79.86
16094;BME280;8151;47.824;12.092;2023-03-14T10:42:58;94677.53;;;9.43;80.58
16094;BME280;8151;47.824;12.092;2023-03-14T10:45:36;94671.59;;;9.34;80.76
16094;BME280;8151;47.824;12.092;2023-03-14T10:48:20;94669.97;;;9.26;80.54
16094;BME280;8151;47.824;12.092;2023-03-14T10:50:55;94662.06;;;9.20;80.96
16094;BME280;8151;47.824;12.092;2023-03-14T10:53:25;94663.69;;;9.14;80.32
16094;BME280;8151;47.824;12.092;2023-03-14T10:55:55;94682.56;;;9.11;80.07
16094;BME280;8151;47.824;12.092;2023-03-14T10:58:26;94677.88;;;9.06;80.71
16094;BME280;8151;47.824;12.092;2023-03-14T11:01:05;94685.38;;;9.03;80.32
16094;BME280;8151;47.824;12.092;2023-03-14T11:03:39;94674.00;;;9.02;80.37
16094;BME280;8151;47.824;12.092;2023-03-14T11:06:14;94674.22;;;9.01;80.25
16094;BME280;8151;47.824;12.092;2023-03-14T11:08:48;94670.34;;;8.97;80.12
16094;BME280;8151;47.824;12.092;2023-03-14T11:11:23;94680.47;;;8.93;79.71
16094;BME280;8151;47.824;12.092;2023-03-14T11:14:02;94678.25;;;8.97;79.99
16094;BME280;8151;47.824;12.092;2023-03-14T11:16:44;94678.88;;;8.99;79.79
16094;BME280;8151;47.824;12.092;2023-03-14T11:19:32;94679.91;;;8.98;79.24
16094;BME280;8151;47.824;12.092;2023-03-14T11:22:13;94669.34;;;8.98;79.54
16094;BME280;8151;47.824;12.092;2023-03-14T11:24:52;94660.81;;;9.02;79.08
16094;BME280;8151;47.824;12.092;2023-03-14T11:27:29;94666.75;;;9.11;78.62
16094;BME280;8151;47.824;12.092;2023-03-14T11:30:06;94673.44;;;9.20;78.74
16094;BME280;8151;47.824;12.092;2023-03-14T11:32:45;94674.25;;;9.34;78.27
16094;BME280;8151;47.824;12.092;2023-03-14T11:35:17;94647.66;;;9.49;77.47
16094;BME280;8151;47.824;12.092;2023-03-14T11:37:54;94653.16;;;9.68;77.64
16094;BME280;8151;47.824;12.092;2023-03-14T11:40:26;94649.25;;;9.77;76.88
16094;BME280;8151;47.824;12.092;2023-03-14T11:43:00;94656.59;;;9.81;77.04
16094;BME280;8151;47.824;12.092;2023-03-14T11:45:35;94666.53;;;9.93;77.27
16094;BME280;8151;47.824;12.092;2023-03-14T11:48:24;94653.28;;;10.06;76.89
16094;BME280;8151;47.824;12.092;2023-03-14T11:50:57;94662.16;;;10.25;77.12
16094;BME280;8151;47.824;12.092;2023-03-14T11:53:36;94647.72;;;10.41;75.99
16094;BME280;8151;47.824;12.092;2023-03-14T11:56:12;94644.66;;;10.51;76.27
16094;BME280;8151;47.824;12.092;2023-03-14T11:58:51;94655.97;;;10.64;76.32
16094;BME280;8151;47.824;12.092;2023-03-14T12:01:44;94640.69;;;10.67;76.08
16094;BME280;8151;47.824;12.092;2023-03-14T12:04:21;94649.19;;;10.75;76.07
16094;BME280;8151;47.824;12.092;2023-03-14T12:06:56;94638.34;;;10.90;75.82
16094;BME280;8151;47.824;12.092;2023-03-14T12:09:31;94637.41;;;11.03;75.56
16094;BME280;8151;47.824;12.092;2023-03-14T12:12:02;94631.72;;;11.06;75.42
16094;BME280;8151;47.824;12.092;2023-03-14T12:14:33;94630.91;;;11.06;75.57
16094;BME280;8151;47.824;12.092;2023-03-14T12:17:05;94627.06;;;11.01;75.55
16094;BME280;8151;47.824;12.092;2023-03-14T12:19:36;94618.75;;;10.98;75.50
16094;BME280;8151;47.824;12.092;2023-03-14T12:22:13;94615.91;;;10.93;75.30
16094;BME280;8151;47.824;12.092;2023-03-14T12:24:51;94621.22;;;10.93;75.10
16094;BME280;8151;47.824;12.092;2023-03-14T12:30:41;94625.78;;;10.79;75.42
16094;BME280;8151;47.824;12.092;2023-03-14T12:33:31;94626.84;;;10.71;74.83
16094;BME280;8151;47.824;12.092;2023-03-14T12:38:56;94614.84;;;10.69;75.00
16094;BME280;8151;47.824;12.092;2023-03-14T12:41:36;94608.09;;;10.73;74.69
16094;BME280;8151;47.824;12.092;2023-03-14T12:44:43;94597.88;;;10.83;74.23
16094;BME280;8151;47.824;12.092;2023-03-14T12:47:50;94608.63;;;10.88;74.19
16094;BME280;8151;47.824;12.092;2023-03-14T12:50:25;94603.72;;;10.92;74.42
16094;BME280;8151;47.824;12.092;2023-03-14T12:56:00;94599.28;;;10.86;74.48
16094;BME280;8151;47.824;12.092;2023-03-14T12:58:35;94594.41;;;10.82;74.17
16094;BME280;8151;47.824;12.092;2023-03-14T13:01:15;94595.66;;;10.80;74.00
16094;BME280;8151;47.824;12.092;2023-03-14T13:03:45;94595.06;;;10.78;74.63
16094;BME280;8151;47.824;12.092;2023-03-14T13:06:46;94597.91;;;10.76;73.99
16094;BME280;8151;47.824;12.092;2023-03-14T13:12:29;94610.31;;;10.76;74.67
16094;BME280;8151;47.824;12.092;2023-03-14T13:15:14;94609.91;;;10.79;74.18
16094;BME280;8151;47.824;12.092;2023-03-14T13:17:46;94613.53;;;10.84;74.28
16094;BME280;8151;47.824;12.092;2023-03-14T13:20:21;94622.72;;;10.82;74.57
16094;BME280;8151;47.824;12.092;2023-03-14T13:22:50;94628.81;;;10.76;74.49
16094;BME280;8151;47.824;12.092;2023-03-14T13:25:19;94632.13;;;10.71;74.82
16094;BME280;8151;47.824;12.092;2023-03-14T13:27:49;94644.34;;;10.66;74.71
16094;BME280;8151;47.824;12.092;2023-03-14T13:30:26;94652.53;;;10.57;75.11
16094;BME280;8151;47.824;12.092;2023-03-14T13:32:55;94658.47;;;10.53;75.59
16094;BME280;8151;47.824;12.092;2023-03-14T13:35:26;94669.44;;;10.50;75.36
16094;BME280;8151;47.824;12.092;2023-03-14T13:37:57;94668.66;;;10.42;75.79
16094;BME280;8151;47.824;12.092;2023-03-14T13:40:38;94674.97;;;10.41;76.03
16094;BME280;8151;47.824;12.092;2023-03-14T13:43:15;94715.03;;;10.38;75.86